sensor_id;sensor_type;location;lat;lon;timestamp;temperature;humidity
11855;DHT22;5987;53.140;8.904;2023-03-16T00:01:25;0.90;99.90
11855;DHT22;5987;53.140;8.904;2023-03-16T00:04:31;0.90;99.90
11855;DHT22;5987;53.140;8.904;2023-03-16T00:07:39;1.00;99.90
11855;DHT22;5987;53.140;8.904;2023-03-16T00:10:44;1.00;99.90
11855;DHT22;5987;53.140;8.904;2023-03-16T00:13:48;1.00;99.90
11855;DHT22;5987;53.140;8.904;2023-03-16T00:16:54;0.90;99.90
11855;DHT22;5987;53.140;8.904;2023-03-16T00:19:58;0.90;99.90
11855;DHT22;5987;53.140;8.904;2023-03-16T00:23:07;0.80;99.90
11855;DHT22;5987;53.140;8.904;2023-03-16T00:26:11;0.70;99.90
11855;DHT22;5987;53.140;8.904;2023-03-16T00:29:15;0.70;99.90
11855;DHT22;5987;53.140;8.904;2023-03-16T00:32:21;0.70;99.90
11855;DHT22;5987;53.140;8.904;2023-03-16T00:35:27;0.70;99.90
11855;DHT22;5987;53.140;8.904;2023-03-16T00:38:32;0.80;99.90
11855;DHT22;5987;53.140;8.904;2023-03-16T00:41:37;0.90;99.90
11855;DHT22;5987;53.140;8.904;2023-03-16T00:44:41;0.90;99.90
11855;DHT22;5987;53.140;8.904;2023-03-16T00:47:47;0.90;99.90
11855;DHT22;5987;53.140;8.904;2023-03-16T00:50:50;0.90;99.90
11855;DHT22;5987;53.140;8.904;2023-03-16T00:53:55;0.90;99.90
11855;DHT22;5987;53.140;8.904;2023-03-16T00:56:59;0.90;99.90
11855;DHT22;5987;53.140;8.904;2023-03-16T01:00:04;1.00;99.90
11855;DHT22;5987;53.140;8.904;2023-03-16T01:03:15;1.00;99.90
11855;DHT22;5987;53.140;8.904;2023-03-16T01:06:19;1.00;99.90
11855;DHT22;5987;53.140;8.904;2023-03-16T01:09:23;1.10;99.90
11855;DHT22;5987;53.140;8.904;2023-03-16T01:12:26;1.10;99.90
11855;DHT22;5987;53.140;8.904;2023-03-16T01:15:30;1.20;99.90
11855;DHT22;5987;53.140;8.904;2023-03-16T01:18:37;1.20;99.90
11855;DHT22;5987;53.140;8.904;2023-03-16T01:21:41;1.10;99.90
11855;DHT22;5987;53.140;8.904;2023-03-16T01:24:45;1.10;99.90
11855;DHT22;5987;53.140;8.904;2023-03-16T01:27:49;1.00;99.90
11855;DHT22;5987;53.140;8.904;2023-03-16T01:30:58;1.10;99.90
11855;DHT22;5987;53.140;8.904;2023-03-16T01:34:05;1.00;99.90
11855;DHT22;5987;53.140;8.904;2023-03-16T01:37:09;1.00;99.90
11855;DHT22;5987;53.140;8.904;2023-03-16T01:40:13;1.00;99.90
11855;DHT22;5987;53.140;8.904;2023-03-16T01:43:18;1.00;99.90
11855;DHT22;5987;53.140;8.904;2023-03-16T01:46:23;0.90;99.90
11855;DHT22;5987;53.140;8.904;2023-03-16T01:49:32;0.90;99.90
11855;DHT22;5987;53.140;8.904;2023-03-16T01:52:38;0.90;99.90
11855;DHT22;5987;53.140;8.904;2023-03-16T01:55:43;1.00;99.90
11855;DHT22;5987;53.140;8.904;2023-03-16T01:58:50;1.00;99.90
11855;DHT22;5987;53.140;8.904;2023-03-16T02:02:01;1.00;99.90
11855;DHT22;5987;53.140;8.904;2023-03-16T02:05:10;1.00;99.90
11855;DHT22;5987;53.140;8.904;2023-03-16T02:08:17;1.00;99.90
11855;DHT22;5987;53.140;8.904;2023-03-16T02:11:21;1.10;99.90
11855;DHT22;5987;53.140;8.904;2023-03-16T02:14:25;1.00;99.90
11855;DHT22;5987;53.140;8.904;2023-03-16T02:17:30;1.00;99.90
11855;DHT22;5987;53.140;8.904;2023-03-16T02:20:42;1.10;99.90
11855;DHT22;5987;53.140;8.904;2023-03-16T02:23:52;1.10;99.90
11855;DHT22;5987;53.140;8.904;2023-03-16T02:26:59;1.10;99.90
11855;DHT22;5987;53.140;8.904;2023-03-16T02:30:08;1.10;99.90
11855;DHT22;5987;53.140;8.904;2023-03-16T02:33:16;1.20;99.90
11855;DHT22;5987;53.140;8.904;2023-03-16T02:36:22;1.20;99.90
11855;DHT22;5987;53.140;8.904;2023-03-16T02:39:26;1.20;99.90
11855;DHT22;5987;53.140;8.904;2023-03-16T02:42:29;1.30;99.90
11855;DHT22;5987;53.140;8.904;2023-03-16T02:45:38;1.30;99.90
11855;DHT22;5987;53.140;8.904;2023-03-16T02:48:47;1.30;99.90
11855;DHT22;5987;53.140;8.904;2023-03-16T02:51:55;1.30;99.90
11855;DHT22;5987;53.140;8.904;2023-03-16T02:54:59;1.30;99.90
11855;DHT22;5987;53.140;8.904;2023-03-16T02:58:02;1.30;99.90
11855;DHT22;5987;53.140;8.904;2023-03-16T03:01:07;1.30;99.90
11855;DHT22;5987;53.140;8.904;2023-03-16T03:04:12;1.30;99.90
11855;DHT22;5987;53.140;8.904;2023-03-16T03:07:16;1.30;99.90
11855;DHT22;5987;53.140;8.904;2023-03-16T03:10:19;1.20;99.90
11855;DHT22;5987;53.140;8.904;2023-03-16T03:13:23;1.30;99.90
11855;DHT22;5987;53.140;8.904;2023-03-16T03:16:28;1.10;99.90
11855;DHT22;5987;53.140;8.904;2023-03-16T03:19:32;1.10;99.90
11855;DHT22;5987;53.140;8.904;2023-03-16T03:22:36;1.20;99.90
11855;DHT22;5987;53.140;8.904;2023-03-16T03:25:40;1.20;99.90
11855;DHT22;5987;53.140;8.904;2023-03-16T03:28:44;1.30;99.90
11855;DHT22;5987;53.140;8.904;2023-03-16T03:31:49;1.30;99.90
11855;DHT22;5987;53.140;8.904;2023-03-16T03:34:53;1.20;99.90
11855;DHT22;5987;53.140;8.904;2023-03-16T03:37:56;1.20;99.90
11855;DHT22;5987;53.140;8.904;2023-03-16T03:41:00;1.20;99.90
11855;DHT22;5987;53.140;8.904;2023-03-16T03:44:04;1.30;99.90
11855;DHT22;5987;53.140;8.904;2023-03-16T03:47:09;1.30;99.90
11855;DHT22;5987;53.140;8.904;2023-03-16T03:50:13;1.30;99.90
11855;DHT22;5987;53.140;8.904;2023-03-16T03:53:16;1.30;99.90
11855;DHT22;5987;53.140;8.904;2023-03-16T03:56:21;1.30;99.90
11855;DHT22;5987;53.140;8.904;2023-03-16T03:59:24;1.30;99.90
11855;DHT22;5987;53.140;8.904;2023-03-16T04:02:30;1.30;99.90
11855;DHT22;5987;53.140;8.904;2023-03-16T04:05:34;1.30;99.90
11855;DHT22;5987;53.140;8.904;2023-03-16T04:08:37;1.20;99.90
11855;DHT22;5987;53.140;8.904;2023-03-16T04:11:42;1.40;99.90
11855;DHT22;5987;53.140;8.904;2023-03-16T04:14:46;1.50;99.90
11855;DHT22;5987;53.140;8.904;2023-03-16T04:17:51;1.50;99.90
11855;DHT22;5987;53.140;8.904;2023-03-16T04:20:54;1.60;99.90
11855;DHT22;5987;53.140;8.904;2023-03-16T04:24:00;1.50;99.90
11855;DHT22;5987;53.140;8.904;2023-03-16T04:27:06;1.50;99.90
11855;DHT22;5987;53.140;8.904;2023-03-16T04:30:12;1.50;99.90
11855;DHT22;5987;53.140;8.904;2023-03-16T04:33:18;1.50;99.90
11855;DHT22;5987;53.140;8.904;2023-03-16T04:36:22;1.60;99.90
11855;DHT22;5987;53.140;8.904;2023-03-16T04:39:26;1.60;99.90
11855;DHT22;5987;53.140;8.904;2023-03-16T04:42:30;1.50;99.90
11855;DHT22;5987;53.140;8.904;2023-03-16T04:45:33;1.50;99.90
11855;DHT22;5987;53.140;8.904;2023-03-16T04:48:39;1.60;99.90
11855;DHT22;5987;53.140;8.904;2023-03-16T04:51:42;1.60;99.90
11855;DHT22;5987;53.140;8.904;2023-03-16T04:54:46;1.70;99.90
11855;DHT22;5987;53.140;8.904;2023-03-16T04:57:50;1.70;99.90
11855;DHT22;5987;53.140;8.904;2023-03-16T05:00:54;1.60;99.90
11855;DHT22;5987;53.140;8.904;2023-03-16T05:03:59;1.70;99.90
11855;DHT22;5987;53.140;8.904;2023-03-16T05:07:04;1.70;99.90
11855;DHT22;5987;53.140;8.904;2023-03-16T05:10:08;1.70;99.90
11855;DHT22;5987;53.140;8.904;2023-03-16T05:13:14;1.70;99.90
11855;DHT22;5987;53.140;8.904;2023-03-16T05:16:17;1.60;99.90
11855;DHT22;5987;53.140;8.904;2023-03-16T05:19:22;1.60;99.90
11855;DHT22;5987;53.140;8.904;2023-03-16T05:22:26;1.50;99.90
11855;DHT22;5987;53.140;8.904;2023-03-16T05:25:30;1.50;99.90
11855;DHT22;5987;53.140;8.904;2023-03-16T05:28:52;1.60;99.90
11855;DHT22;5987;53.140;8.904;2023-03-16T05:31:56;1.50;99.90
11855;DHT22;5987;53.140;8.904;2023-03-16T05:35:01;1.60;99.90
11855;DHT22;5987;53.140;8.904;2023-03-16T05:38:05;1.50;99.90
11855;DHT22;5987;53.140;8.904;2023-03-16T05:41:10;1.50;99.90
11855;DHT22;5987;53.140;8.904;2023-03-16T05:44:15;1.50;99.90
11855;DHT22;5987;53.140;8.904;2023-03-16T05:47:19;1.50;99.90
11855;DHT22;5987;53.140;8.904;2023-03-16T05:50:24;1.60;99.90
11855;DHT22;5987;53.140;8.904;2023-03-16T05:53:30;1.60;99.90
11855;DHT22;5987;53.140;8.904;2023-03-16T05:56:34;1.60;99.90
11855;DHT22;5987;53.140;8.904;2023-03-16T05:59:38;1.60;99.90
11855;DHT22;5987;53.140;8.904;2023-03-16T06:02:42;1.70;99.90
11855;DHT22;5987;53.140;8.904;2023-03-16T06:05:50;1.70;99.90
11855;DHT22;5987;53.140;8.904;2023-03-16T06:08:53;1.80;99.90
11855;DHT22;5987;53.140;8.904;2023-03-16T06:11:57;1.80;99.90
11855;DHT22;5987;53.140;8.904;2023-03-16T06:15:01;1.80;99.90
11855;DHT22;5987;53.140;8.904;2023-03-16T06:18:08;1.90;99.90
11855;DHT22;5987;53.140;8.904;2023-03-16T06:21:13;1.80;99.90
11855;DHT22;5987;53.140;8.904;2023-03-16T06:24:17;1.90;99.90
11855;DHT22;5987;53.140;8.904;2023-03-16T06:27:20;2.00;99.90
11855;DHT22;5987;53.140;8.904;2023-03-16T06:30:27;2.00;99.90
11855;DHT22;5987;53.140;8.904;2023-03-16T06:33:31;2.10;99.90
11855;DHT22;5987;53.140;8.904;2023-03-16T06:36:36;2.30;99.90
11855;DHT22;5987;53.140;8.904;2023-03-16T06:39:41;2.40;99.90
11855;DHT22;5987;53.140;8.904;2023-03-16T06:42:45;2.50;99.90
11855;DHT22;5987;53.140;8.904;2023-03-16T06:45:49;2.60;99.90
11855;DHT22;5987;53.140;8.904;2023-03-16T06:49:02;2.60;99.90
11855;DHT22;5987;53.140;8.904;2023-03-16T06:52:08;2.70;99.90
11855;DHT22;5987;53.140;8.904;2023-03-16T06:55:14;2.80;99.90
11855;DHT22;5987;53.140;8.904;2023-03-16T06:58:18;2.80;99.90
11855;DHT22;5987;53.140;8.904;2023-03-16T07:01:22;2.80;99.90
11855;DHT22;5987;53.140;8.904;2023-03-16T07:04:26;2.90;99.90
11855;DHT22;5987;53.140;8.904;2023-03-16T07:07:31;2.90;99.90
11855;DHT22;5987;53.140;8.904;2023-03-16T07:10:34;3.00;99.90
11855;DHT22;5987;53.140;8.904;2023-03-16T07:13:38;3.10;99.90
11855;DHT22;5987;53.140;8.904;2023-03-16T07:16:42;3.20;99.90
11855;DHT22;5987;53.140;8.904;2023-03-16T07:19:45;3.30;99.90
11855;DHT22;5987;53.140;8.904;2023-03-16T07:22:50;3.30;99.90
11855;DHT22;5987;53.140;8.904;2023-03-16T07:25:54;3.40;99.90
11855;DHT22;5987;53.140;8.904;2023-03-16T07:28:58;3.40;99.90
11855;DHT22;5987;53.140;8.904;2023-03-16T07:32:02;3.60;99.90
11855;DHT22;5987;53.140;8.904;2023-03-16T07:35:06;3.60;99.90
11855;DHT22;5987;53.140;8.904;2023-03-16T07:38:12;3.70;99.90
11855;DHT22;5987;53.140;8.904;2023-03-16T07:41:16;3.80;99.90
11855;DHT22;5987;53.140;8.904;2023-03-16T07:44:20;4.00;99.90
11855;DHT22;5987;53.140;8.904;2023-03-16T07:47:24;3.90;99.90
11855;DHT22;5987;53.140;8.904;2023-03-16T07:50:27;4.00;99.90
11855;DHT22;5987;53.140;8.904;2023-03-16T07:53:33;4.00;99.90
11855;DHT22;5987;53.140;8.904;2023-03-16T07:56:37;4.10;99.90
11855;DHT22;5987;53.140;8.904;2023-03-16T07:59:50;4.20;99.90
11855;DHT22;5987;53.140;8.904;2023-03-16T08:02:54;4.30;99.90
11855;DHT22;5987;53.140;8.904;2023-03-16T08:05:58;4.30;99.90
11855;DHT22;5987;53.140;8.904;2023-03-16T08:09:03;4.50;99.90
11855;DHT22;5987;53.140;8.904;2023-03-16T08:12:08;4.60;99.90
11855;DHT22;5987;53.140;8.904;2023-03-16T08:15:13;4.90;99.90
11855;DHT22;5987;53.140;8.904;2023-03-16T08:18:17;4.90;99.90
11855;DHT22;5987;53.140;8.904;2023-03-16T08:21:20;5.10;99.90
11855;DHT22;5987;53.140;8.904;2023-03-16T08:24:28;5.30;99.90
11855;DHT22;5987;53.140;8.904;2023-03-16T08:27:32;5.50;99.90
11855;DHT22;5987;53.140;8.904;2023-03-16T08:30:35;5.60;99.90
11855;DHT22;5987;53.140;8.904;2023-03-16T08:33:39;5.60;99.90
11855;DHT22;5987;53.140;8.904;2023-03-16T08:36:44;5.60;99.90
11855;DHT22;5987;53.140;8.904;2023-03-16T08:39:49;5.60;99.90
11855;DHT22;5987;53.140;8.904;2023-03-16T08:42:55;5.80;99.90
11855;DHT22;5987;53.140;8.904;2023-03-16T08:45:58;5.80;99.90
11855;DHT22;5987;53.140;8.904;2023-03-16T08:49:03;6.00;99.90
11855;DHT22;5987;53.140;8.904;2023-03-16T08:52:08;6.20;99.90
11855;DHT22;5987;53.140;8.904;2023-03-16T08:55:15;6.20;99.90
11855;DHT22;5987;53.140;8.904;2023-03-16T08:58:19;6.30;99.90
11855;DHT22;5987;53.140;8.904;2023-03-16T09:01:23;6.40;99.90
11855;DHT22;5987;53.140;8.904;2023-03-16T09:04:27;6.40;99.90
11855;DHT22;5987;53.140;8.904;2023-03-16T09:07:31;6.60;99.90
11855;DHT22;5987;53.140;8.904;2023-03-16T09:10:38;6.70;99.90
11855;DHT22;5987;53.140;8.904;2023-03-16T09:13:43;6.80;99.90
11855;DHT22;5987;53.140;8.904;2023-03-16T09:16:47;6.90;99.90
11855;DHT22;5987;53.140;8.904;2023-03-16T09:19:50;7.00;99.90
11855;DHT22;5987;53.140;8.904;2023-03-16T09:23:04;6.90;99.90
11855;DHT22;5987;53.140;8.904;2023-03-16T09:26:10;6.90;99.90
11855;DHT22;5987;53.140;8.904;2023-03-16T09:29:15;7.00;99.90
11855;DHT22;5987;53.140;8.904;2023-03-16T09:32:19;7.10;99.90
11855;DHT22;5987;53.140;8.904;2023-03-16T09:35:23;7.40;99.90
11855;DHT22;5987;53.140;8.904;2023-03-16T09:38:28;7.50;99.90
11855;DHT22;5987;53.140;8.904;2023-03-16T09:41:44;7.70;99.90
11855;DHT22;5987;53.140;8.904;2023-03-16T09:45:02;7.60;99.90
11855;DHT22;5987;53.140;8.904;2023-03-16T09:48:16;7.50;99.90
11855;DHT22;5987;53.140;8.904;2023-03-16T09:51:35;7.60;99.90
11855;DHT22;5987;53.140;8.904;2023-03-16T09:54:48;7.80;99.90
11855;DHT22;5987;53.140;8.904;2023-03-16T09:58:00;7.80;99.90
11855;DHT22;5987;53.140;8.904;2023-03-16T10:01:15;7.90;99.90
11855;DHT22;5987;53.140;8.904;2023-03-16T10:04:37;7.90;99.90
11855;DHT22;5987;53.140;8.904;2023-03-16T10:07:55;8.10;99.90
11855;DHT22;5987;53.140;8.904;2023-03-16T10:11:23;8.10;99.90
11855;DHT22;5987;53.140;8.904;2023-03-16T10:14:37;8.10;99.90
11855;DHT22;5987;53.140;8.904;2023-03-16T10:17:51;8.30;99.90
11855;DHT22;5987;53.140;8.904;2023-03-16T10:21:01;8.40;99.90
11855;DHT22;5987;53.140;8.904;2023-03-16T10:24:14;8.30;99.90
11855;DHT22;5987;53.140;8.904;2023-03-16T10:27:29;8.50;99.90
11855;DHT22;5987;53.140;8.904;2023-03-16T10:30:36;8.60;99.90
11855;DHT22;5987;53.140;8.904;2023-03-16T10:33:43;8.60;99.90
11855;DHT22;5987;53.140;8.904;2023-03-16T10:36:48;8.70;99.90
11855;DHT22;5987;53.140;8.904;2023-03-16T10:39:54;8.80;99.90
11855;DHT22;5987;53.140;8.904;2023-03-16T10:43:04;8.90;99.90
11855;DHT22;5987;53.140;8.904;2023-03-16T10:46:11;9.00;99.90
11855;DHT22;5987;53.140;8.904;2023-03-16T10:49:21;8.90;99.90
11855;DHT22;5987;53.140;8.904;2023-03-16T10:52:33;9.10;99.90
11855;DHT22;5987;53.140;8.904;2023-03-16T10:55:42;8.90;99.90
11855;DHT22;5987;53.140;8.904;2023-03-16T10:58:51;8.90;99.90
11855;DHT22;5987;53.140;8.904;2023-03-16T11:01:56;8.90;99.90
11855;DHT22;5987;53.140;8.904;2023-03-16T11:05:11;8.90;99.90
11855;DHT22;5987;53.140;8.904;2023-03-16T11:08:19;8.90;99.90
11855;DHT22;5987;53.140;8.904;2023-03-16T11:11:29;8.80;99.60
11855;DHT22;5987;53.140;8.904;2023-03-16T11:14:34;8.90;99.90
11855;DHT22;5987;53.140;8.904;2023-03-16T11:17:43;8.90;99.70
11855;DHT22;5987;53.140;8.904;2023-03-16T11:20:48;9.10;99.90
11855;DHT22;5987;53.140;8.904;2023-03-16T11:23:55;9.10;99.50
11855;DHT22;5987;53.140;8.904;2023-03-16T11:27:01;9.20;99.90
11855;DHT22;5987;53.140;8.904;2023-03-16T11:30:14;9.20;98.30
11855;DHT22;5987;53.140;8.904;2023-03-16T11:33:23;9.40;99.10
11855;DHT22;5987;53.140;8.904;2023-03-16T11:36:38;9.60;98.90
11855;DHT22;5987;53.140;8.904;2023-03-16T11:39:56;9.60;97.20
11855;DHT22;5987;53.140;8.904;2023-03-16T11:43:34;9.40;98.00
11855;DHT22;5987;53.140;8.904;2023-03-16T11:46:56;9.50;97.00
11855;DHT22;5987;53.140;8.904;2023-03-16T11:50:13;9.40;97.70
11855;DHT22;5987;53.140;8.904;2023-03-16T11:53:31;9.60;97.50
11855;DHT22;5987;53.140;8.904;2023-03-16T11:56:48;9.30;96.10
11855;DHT22;5987;53.140;8.904;2023-03-16T12:00:05;9.50;97.30
11855;DHT22;5987;53.140;8.904;2023-03-16T12:03:41;9.90;96.50
11855;DHT22;5987;53.140;8.904;2023-03-16T12:07:04;9.90;96.60
11855;DHT22;5987;53.140;8.904;2023-03-16T12:10:23;10.00;96.50
11855;DHT22;5987;53.140;8.904;2023-03-16T12:13:40;10.00;95.50
11855;DHT22;5987;53.140;8.904;2023-03-16T12:17:02;9.70;94.90
11855;DHT22;5987;53.140;8.904;2023-03-16T12:20:16;9.60;95.40
11855;DHT22;5987;53.140;8.904;2023-03-16T12:23:30;9.80;94.60
11855;DHT22;5987;53.140;8.904;2023-03-16T12:26:39;9.90;95.20
11855;DHT22;5987;53.140;8.904;2023-03-16T12:29:54;10.20;95.40
11855;DHT22;5987;53.140;8.904;2023-03-16T12:33:10;10.50;94.70
11855;DHT22;5987;53.140;8.904;2023-03-16T12:36:45;10.50;93.40
11855;DHT22;5987;53.140;8.904;2023-03-16T12:40:20;10.70;92.50
11855;DHT22;5987;53.140;8.904;2023-03-16T12:43:44;10.40;91.70
11855;DHT22;5987;53.140;8.904;2023-03-16T12:47:00;10.40;91.80
11855;DHT22;5987;53.140;8.904;2023-03-16T12:50:12;10.40;92.40
11855;DHT22;5987;53.140;8.904;2023-03-16T12:53:42;10.20;91.60
11855;DHT22;5987;53.140;8.904;2023-03-16T12:56:50;10.10;90.70
11855;DHT22;5987;53.140;8.904;2023-03-16T12:59:58;10.10;91.70
11855;DHT22;5987;53.140;8.904;2023-03-16T13:03:13;10.40;92.60
11855;DHT22;5987;53.140;8.904;2023-03-16T13:06:21;10.60;91.90
11855;DHT22;5987;53.140;8.904;2023-03-16T13:09:27;10.60;91.10
11855;DHT22;5987;53.140;8.904;2023-03-16T13:12:35;10.40;91.20
11855;DHT22;5987;53.140;8.904;2023-03-16T13:16:02;10.30;91.40
11855;DHT22;5987;53.140;8.904;2023-03-16T13:19:23;10.20;91.80
11855;DHT22;5987;53.140;8.904;2023-03-16T13:22:39;10.10;91.40
11855;DHT22;5987;53.140;8.904;2023-03-16T13:26:02;10.10;91.90
11855;DHT22;5987;53.140;8.904;2023-03-16T13:29:22;10.30;92.30
11855;DHT22;5987;53.140;8.904;2023-03-16T13:32:31;10.50;92.80
11855;DHT22;5987;53.140;8.904;2023-03-16T13:35:36;10.70;92.80
11855;DHT22;5987;53.140;8.904;2023-03-16T13:38:42;10.50;91.30
11855;DHT22;5987;53.140;8.904;2023-03-16T13:42:01;10.40;91.60
11855;DHT22;5987;53.140;8.904;2023-03-16T13:45:12;10.30;92.30
11855;DHT22;5987;53.140;8.904;2023-03-16T13:48:17;10.20;91.70
11855;DHT22;5987;53.140;8.904;2023-03-16T13:51:22;10.10;91.90
11855;DHT22;5987;53.140;8.904;2023-03-16T13:54:27;9.90;91.80
11855;DHT22;5987;53.140;8.904;2023-03-16T13:57:36;10.00;92.70
11855;DHT22;5987;53.140;8.904;2023-03-16T14:00:44;9.70;91.50
11855;DHT22;5987;53.140;8.904;2023-03-16T14:03:49;9.60;92.60
11855;DHT22;5987;53.140;8.904;2023-03-16T14:06:55;9.70;91.80
11855;DHT22;5987;53.140;8.904;2023-03-16T14:10:00;9.70;92.30
11855;DHT22;5987;53.140;8.904;2023-03-16T14:13:07;9.60;92.10
11855;DHT22;5987;53.140;8.904;2023-03-16T14:16:16;9.60;93.00
11855;DHT22;5987;53.140;8.904;2023-03-16T14:19:22;9.70;93.40
11855;DHT22;5987;53.140;8.904;2023-03-16T14:22:37;9.80;92.30
11855;DHT22;5987;53.140;8.904;2023-03-16T14:25:40;9.80;92.60
11855;DHT22;5987;53.140;8.904;2023-03-16T14:28:53;9.80;92.00
11855;DHT22;5987;53.140;8.904;2023-03-16T14:32:00;9.80;91.80
11855;DHT22;5987;53.140;8.904;2023-03-16T14:35:13;9.70;91.80
11855;DHT22;5987;53.140;8.904;2023-03-16T14:38:19;9.80;92.20
11855;DHT22;5987;53.140;8.904;2023-03-16T14:41:26;9.70;91.50
11855;DHT22;5987;53.140;8.904;2023-03-16T14:44:34;9.70;91.90
11855;DHT22;5987;53.140;8.904;2023-03-16T14:47:45;9.60;92.40
11855;DHT22;5987;53.140;8.904;2023-03-16T14:50:53;9.60;91.50
11855;DHT22;5987;53.140;8.904;2023-03-16T14:54:04;9.60;92.00
11855;DHT22;5987;53.140;8.904;2023-03-16T14:57:18;9.70;91.70
11855;DHT22;5987;53.140;8.904;2023-03-16T15:00:21;9.70;91.70
11855;DHT22;5987;53.140;8.904;2023-03-16T15:03:31;9.70;91.30
11855;DHT22;5987;53.140;8.904;2023-03-16T15:06:37;9.90;91.50
11855;DHT22;5987;53.140;8.904;2023-03-16T15:09:41;10.10;91.40
11855;DHT22;5987;53.140;8.904;2023-03-16T15:12:45;10.10;90.70
11855;DHT22;5987;53.140;8.904;2023-03-16T15:15:55;10.10;91.20
11855;DHT22;5987;53.140;8.904;2023-03-16T15:19:00;10.20;90.80
11855;DHT22;5987;53.140;8.904;2023-03-16T15:22:04;10.30;91.20
11855;DHT22;5987;53.140;8.904;2023-03-16T15:25:24;10.30;90.20
11855;DHT22;5987;53.140;8.904;2023-03-16T15:28:37;9.90;87.80
11855;DHT22;5987;53.140;8.904;2023-03-16T15:31:41;9.90;90.10
11855;DHT22;5987;53.140;8.904;2023-03-16T15:34:46;9.90;90.10
11855;DHT22;5987;53.140;8.904;2023-03-16T15:37:50;9.90;90.30
11855;DHT22;5987;53.140;8.904;2023-03-16T15:40:55;9.90;90.50
11855;DHT22;5987;53.140;8.904;2023-03-16T15:43:58;9.90;89.70
11855;DHT22;5987;53.140;8.904;2023-03-16T15:47:05;9.90;90.10
11855;DHT22;5987;53.140;8.904;2023-03-16T15:50:13;9.80;88.70
11855;DHT22;5987;53.140;8.904;2023-03-16T15:53:23;9.90;87.60
11855;DHT22;5987;53.140;8.904;2023-03-16T15:56:35;9.80;86.60
11855;DHT22;5987;53.140;8.904;2023-03-16T15:59:55;9.70;85.20
11855;DHT22;5987;53.140;8.904;2023-03-16T16:02:59;9.60;85.60
11855;DHT22;5987;53.140;8.904;2023-03-16T16:06:09;9.60;86.20
11855;DHT22;5987;53.140;8.904;2023-03-16T16:09:14;9.40;88.20
11855;DHT22;5987;53.140;8.904;2023-03-16T16:12:18;9.50;90.60
11855;DHT22;5987;53.140;8.904;2023-03-16T16:15:29;9.40;91.60
11855;DHT22;5987;53.140;8.904;2023-03-16T16:18:35;9.40;92.10
11855;DHT22;5987;53.140;8.904;2023-03-16T16:21:41;9.30;92.70
11855;DHT22;5987;53.140;8.904;2023-03-16T16:24:46;9.30;92.80
11855;DHT22;5987;53.140;8.904;2023-03-16T16:27:50;9.30;93.10
11855;DHT22;5987;53.140;8.904;2023-03-16T16:30:54;9.20;93.00
11855;DHT22;5987;53.140;8.904;2023-03-16T16:33:58;9.10;93.00
11855;DHT22;5987;53.140;8.904;2023-03-16T16:37:03;9.00;93.70
11855;DHT22;5987;53.140;8.904;2023-03-16T16:40:12;9.00;93.70
11855;DHT22;5987;53.140;8.904;2023-03-16T16:43:28;9.00;92.90
11855;DHT22;5987;53.140;8.904;2023-03-16T16:46:36;8.90;93.00
11855;DHT22;5987;53.140;8.904;2023-03-16T16:49:42;8.90;93.10
11855;DHT22;5987;53.140;8.904;2023-03-16T16:52:48;8.90;93.10
11855;DHT22;5987;53.140;8.904;2023-03-16T16:55:52;8.90;92.90
11855;DHT22;5987;53.140;8.904;2023-03-16T16:58:57;8.80;93.10
11855;DHT22;5987;53.140;8.904;2023-03-16T17:02:19;8.80;93.40
11855;DHT22;5987;53.140;8.904;2023-03-16T17:05:27;8.80;93.40
11855;DHT22;5987;53.140;8.904;2023-03-16T17:08:33;8.80;92.70
11855;DHT22;5987;53.140;8.904;2023-03-16T17:11:37;8.70;92.90
11855;DHT22;5987;53.140;8.904;2023-03-16T17:14:41;8.80;92.90
11855;DHT22;5987;53.140;8.904;2023-03-16T17:17:45;8.70;92.90
11855;DHT22;5987;53.140;8.904;2023-03-16T17:20:48;8.70;92.60
11855;DHT22;5987;53.140;8.904;2023-03-16T17:23:55;8.60;93.10
11855;DHT22;5987;53.140;8.904;2023-03-16T17:26:59;8.50;93.00
11855;DHT22;5987;53.140;8.904;2023-03-16T17:30:13;8.50;93.30
11855;DHT22;5987;53.140;8.904;2023-03-16T17:33:25;8.40;93.60
11855;DHT22;5987;53.140;8.904;2023-03-16T17:36:30;8.30;93.70
11855;DHT22;5987;53.140;8.904;2023-03-16T17:39:35;8.20;94.00
11855;DHT22;5987;53.140;8.904;2023-03-16T17:42:39;8.20;94.40
11855;DHT22;5987;53.140;8.904;2023-03-16T17:45:44;8.20;94.60
11855;DHT22;5987;53.140;8.904;2023-03-16T17:48:49;8.10;94.60
11855;DHT22;5987;53.140;8.904;2023-03-16T17:51:54;8.10;94.50
11855;DHT22;5987;53.140;8.904;2023-03-16T17:54:59;8.00;94.60
11855;DHT22;5987;53.140;8.904;2023-03-16T17:58:03;8.00;94.60
11855;DHT22;5987;53.140;8.904;2023-03-16T18:01:09;7.90;94.60
11855;DHT22;5987;53.140;8.904;2023-03-16T18:04:18;7.90;94.50
11855;DHT22;5987;53.140;8.904;2023-03-16T18:07:23;7.90;94.90
11855;DHT22;5987;53.140;8.904;2023-03-16T18:10:28;7.80;94.80
11855;DHT22;5987;53.140;8.904;2023-03-16T18:13:35;7.80;94.90
11855;DHT22;5987;53.140;8.904;2023-03-16T18:16:41;7.70;95.10
11855;DHT22;5987;53.140;8.904;2023-03-16T18:19:46;7.60;95.40
11855;DHT22;5987;53.140;8.904;2023-03-16T18:22:50;7.50;95.50
11855;DHT22;5987;53.140;8.904;2023-03-16T18:25:56;7.50;95.80
11855;DHT22;5987;53.140;8.904;2023-03-16T18:29:03;7.50;96.00
11855;DHT22;5987;53.140;8.904;2023-03-16T18:32:10;7.40;95.80
11855;DHT22;5987;53.140;8.904;2023-03-16T18:35:21;7.40;96.00
11855;DHT22;5987;53.140;8.904;2023-03-16T18:38:28;7.30;96.10
11855;DHT22;5987;53.140;8.904;2023-03-16T18:41:35;7.40;96.30
11855;DHT22;5987;53.140;8.904;2023-03-16T18:44:39;7.40;96.00
11855;DHT22;5987;53.140;8.904;2023-03-16T18:47:47;7.30;96.10
11855;DHT22;5987;53.140;8.904;2023-03-16T18:50:53;7.30;95.90
11855;DHT22;5987;53.140;8.904;2023-03-16T18:53:56;7.30;95.90
11855;DHT22;5987;53.140;8.904;2023-03-16T18:57:02;7.30;96.10
11855;DHT22;5987;53.140;8.904;2023-03-16T19:00:14;7.30;96.30
11855;DHT22;5987;53.140;8.904;2023-03-16T19:03:23;7.20;96.20
11855;DHT22;5987;53.140;8.904;2023-03-16T19:06:30;7.20;96.40
11855;DHT22;5987;53.140;8.904;2023-03-16T19:09:35;7.20;96.40
11855;DHT22;5987;53.140;8.904;2023-03-16T19:12:41;7.10;96.70
11855;DHT22;5987;53.140;8.904;2023-03-16T19:15:45;7.10;97.00
11855;DHT22;5987;53.140;8.904;2023-03-16T19:18:49;7.10;97.00
11855;DHT22;5987;53.140;8.904;2023-03-16T19:21:54;7.00;97.20
11855;DHT22;5987;53.140;8.904;2023-03-16T19:25:00;7.00;97.10
11855;DHT22;5987;53.140;8.904;2023-03-16T19:28:10;7.00;97.20
11855;DHT22;5987;53.140;8.904;2023-03-16T19:31:20;7.00;97.10
11855;DHT22;5987;53.140;8.904;2023-03-16T19:34:26;7.00;97.10
11855;DHT22;5987;53.140;8.904;2023-03-16T19:37:30;6.90;97.50
11855;DHT22;5987;53.140;8.904;2023-03-16T19:40:33;6.90;97.30
11855;DHT22;5987;53.140;8.904;2023-03-16T19:43:39;6.90;97.20
11855;DHT22;5987;53.140;8.904;2023-03-16T19:46:43;6.80;97.50
11855;DHT22;5987;53.140;8.904;2023-03-16T19:49:48;6.90;97.30
11855;DHT22;5987;53.140;8.904;2023-03-16T19:52:53;6.80;97.20
11855;DHT22;5987;53.140;8.904;2023-03-16T19:56:04;6.80;97.30
11855;DHT22;5987;53.140;8.904;2023-03-16T19:59:09;6.80;97.40
11855;DHT22;5987;53.140;8.904;2023-03-16T20:02:22;6.90;97.50
11855;DHT22;5987;53.140;8.904;2023-03-16T20:05:28;6.90;97.80
11855;DHT22;5987;53.140;8.904;2023-03-16T20:08:34;6.80;97.80
11855;DHT22;5987;53.140;8.904;2023-03-16T20:11:38;6.80;97.90
11855;DHT22;5987;53.140;8.904;2023-03-16T20:14:44;6.90;98.00
11855;DHT22;5987;53.140;8.904;2023-03-16T20:17:49;6.90;98.20
11855;DHT22;5987;53.140;8.904;2023-03-16T20:20:54;6.90;98.60